sensor_id;sensor_type;location;lat;lon;timestamp;P1;durP1;ratioP1;P2;durP2;ratioP2
71490;SDS011;59307;50.060;9.150;2023-05-14T00:00:26;9.97;;;6.37;;
71490;SDS011;59307;50.060;9.150;2023-05-14T00:02:51;8.80;;;6.03;;
71490;SDS011;59307;50.060;9.150;2023-05-14T00:05:17;9.60;;;6.10;;
71490;SDS011;59307;50.060;9.150;2023-05-14T00:07:42;10.87;;;6.30;;
71490;SDS011;59307;50.060;9.150;2023-05-14T00:10:07;7.20;;;5.30;;
71490;SDS011;59307;50.060;9.150;2023-05-14T00:12:32;7.83;;;5.67;;
71490;SDS011;59307;50.060;9.150;2023-05-14T00:14:57;6.97;;;4.83;;
71490;SDS011;59307;50.060;9.150;2023-05-14T00:17:23;7.67;;;4.93;;
71490;SDS011;59307;50.060;9.150;2023-05-14T00:19:48;8.73;;;5.60;;
71490;SDS011;59307;50.060;9.150;2023-05-14T00:22:13;10.13;;;5.83;;
71490;SDS011;59307;50.060;9.150;2023-05-14T00:24:38;10.90;;;6.40;;
71490;SDS011;59307;50.060;9.150;2023-05-14T00:27:03;9.90;;;6.37;;
71490;SDS011;59307;50.060;9.150;2023-05-14T00:29:29;10.13;;;5.93;;
71490;SDS011;59307;50.060;9.150;2023-05-14T00:31:54;9.13;;;5.17;;
71490;SDS011;59307;50.060;9.150;2023-05-14T00:34:19;8.03;;;5.37;;
71490;SDS011;59307;50.060;9.150;2023-05-14T00:36:45;6.93;;;4.67;;
71490;SDS011;59307;50.060;9.150;2023-05-14T00:39:10;9.87;;;4.87;;
71490;SDS011;59307;50.060;9.150;2023-05-14T00:41:36;9.13;;;4.72;;
71490;SDS011;59307;50.060;9.150;2023-05-14T00:44:01;6.90;;;4.40;;
71490;SDS011;59307;50.060;9.150;2023-05-14T00:46:26;8.37;;;4.67;;
71490;SDS011;59307;50.060;9.150;2023-05-14T00:48:52;10.00;;;4.27;;
71490;SDS011;59307;50.060;9.150;2023-05-14T00:51:17;8.50;;;4.50;;
71490;SDS011;59307;50.060;9.150;2023-05-14T00:53:43;6.60;;;4.53;;
71490;SDS011;59307;50.060;9.150;2023-05-14T00:56:08;7.47;;;4.23;;
71490;SDS011;59307;50.060;9.150;2023-05-14T00:58:34;5.75;;;3.90;;
71490;SDS011;59307;50.060;9.150;2023-05-14T01:00:59;6.90;;;4.50;;
71490;SDS011;59307;50.060;9.150;2023-05-14T01:03:25;7.40;;;4.60;;
71490;SDS011;59307;50.060;9.150;2023-05-14T01:11:08;8.48;;;4.50;;
71490;SDS011;59307;50.060;9.150;2023-05-14T01:16:14;8.07;;;4.60;;
71490;SDS011;59307;50.060;9.150;2023-05-14T01:18:42;7.32;;;5.13;;
71490;SDS011;59307;50.060;9.150;2023-05-14T01:21:17;7.03;;;4.10;;
71490;SDS011;59307;50.060;9.150;2023-05-14T01:23:43;6.65;;;4.35;;
71490;SDS011;59307;50.060;9.150;2023-05-14T01:26:09;7.63;;;4.90;;
71490;SDS011;59307;50.060;9.150;2023-05-14T01:28:34;9.47;;;6.07;;
71490;SDS011;59307;50.060;9.150;2023-05-14T01:31:05;11.35;;;5.88;;
71490;SDS011;59307;50.060;9.150;2023-05-14T01:33:31;8.20;;;5.17;;
71490;SDS011;59307;50.060;9.150;2023-05-14T01:35:57;10.05;;;5.35;;
71490;SDS011;59307;50.060;9.150;2023-05-14T01:38:22;8.63;;;5.50;;
71490;SDS011;59307;50.060;9.150;2023-05-14T01:40:48;8.83;;;5.10;;
71490;SDS011;59307;50.060;9.150;2023-05-14T01:43:14;7.40;;;4.63;;
71490;SDS011;59307;50.060;9.150;2023-05-14T01:45:40;7.97;;;4.82;;
71490;SDS011;59307;50.060;9.150;2023-05-14T01:48:05;8.03;;;4.90;;
71490;SDS011;59307;50.060;9.150;2023-05-14T01:50:30;10.50;;;4.73;;
71490;SDS011;59307;50.060;9.150;2023-05-14T01:52:55;7.73;;;4.73;;
71490;SDS011;59307;50.060;9.150;2023-05-14T01:55:21;11.40;;;5.10;;
71490;SDS011;59307;50.060;9.150;2023-05-14T01:57:47;8.63;;;4.75;;
71490;SDS011;59307;50.060;9.150;2023-05-14T02:00:12;6.60;;;4.63;;
71490;SDS011;59307;50.060;9.150;2023-05-14T02:02:38;7.67;;;5.00;;
71490;SDS011;59307;50.060;9.150;2023-05-14T02:05:03;10.07;;;5.10;;
71490;SDS011;59307;50.060;9.150;2023-05-14T02:07:28;8.43;;;5.13;;
71490;SDS011;59307;50.060;9.150;2023-05-14T02:09:53;8.70;;;5.17;;
71490;SDS011;59307;50.060;9.150;2023-05-14T02:12:19;9.53;;;5.20;;
71490;SDS011;59307;50.060;9.150;2023-05-14T02:14:44;9.00;;;5.50;;
71490;SDS011;59307;50.060;9.150;2023-05-14T02:17:09;9.88;;;5.03;;
71490;SDS011;59307;50.060;9.150;2023-05-14T02:19:35;7.47;;;5.20;;
71490;SDS011;59307;50.060;9.150;2023-05-14T02:22:00;8.70;;;5.30;;
71490;SDS011;59307;50.060;9.150;2023-05-14T02:24:25;7.33;;;4.80;;
71490;SDS011;59307;50.060;9.150;2023-05-14T02:26:50;8.00;;;5.10;;
71490;SDS011;59307;50.060;9.150;2023-05-14T02:29:16;8.50;;;4.93;;
71490;SDS011;59307;50.060;9.150;2023-05-14T02:31:41;10.27;;;5.17;;
71490;SDS011;59307;50.060;9.150;2023-05-14T02:34:06;9.90;;;5.10;;
71490;SDS011;59307;50.060;9.150;2023-05-14T02:36:31;7.90;;;5.10;;
71490;SDS011;59307;50.060;9.150;2023-05-14T02:38:57;7.20;;;4.80;;
71490;SDS011;59307;50.060;9.150;2023-05-14T02:41:23;7.97;;;4.53;;
71490;SDS011;59307;50.060;9.150;2023-05-14T02:43:48;8.20;;;4.93;;
71490;SDS011;59307;50.060;9.150;2023-05-14T02:46:13;9.13;;;5.60;;
71490;SDS011;59307;50.060;9.150;2023-05-14T02:48:39;7.90;;;4.80;;
71490;SDS011;59307;50.060;9.150;2023-05-14T02:51:04;7.70;;;5.23;;
71490;SDS011;59307;50.060;9.150;2023-05-14T02:53:29;8.67;;;5.00;;
71490;SDS011;59307;50.060;9.150;2023-05-14T02:55:54;9.27;;;5.30;;
71490;SDS011;59307;50.060;9.150;2023-05-14T02:58:19;9.00;;;4.38;;
71490;SDS011;59307;50.060;9.150;2023-05-14T03:00:45;10.83;;;5.03;;
71490;SDS011;59307;50.060;9.150;2023-05-14T03:03:10;8.17;;;5.60;;
71490;SDS011;59307;50.060;9.150;2023-05-14T03:05:35;10.70;;;5.47;;
71490;SDS011;59307;50.060;9.150;2023-05-14T03:08:00;10.10;;;5.53;;
71490;SDS011;59307;50.060;9.150;2023-05-14T03:10:25;7.97;;;4.90;;
71490;SDS011;59307;50.060;9.150;2023-05-14T03:12:51;7.20;;;4.70;;
71490;SDS011;59307;50.060;9.150;2023-05-14T03:15:16;8.33;;;5.47;;
71490;SDS011;59307;50.060;9.150;2023-05-14T03:17:41;7.27;;;4.73;;
71490;SDS011;59307;50.060;9.150;2023-05-14T03:20:06;8.03;;;4.50;;
71490;SDS011;59307;50.060;9.150;2023-05-14T03:22:32;8.63;;;5.60;;
71490;SDS011;59307;50.060;9.150;2023-05-14T03:24:58;7.40;;;4.75;;
71490;SDS011;59307;50.060;9.150;2023-05-14T03:27:23;9.13;;;5.27;;
71490;SDS011;59307;50.060;9.150;2023-05-14T03:29:49;7.50;;;4.90;;
71490;SDS011;59307;50.060;9.150;2023-05-14T03:32:14;7.70;;;4.80;;
71490;SDS011;59307;50.060;9.150;2023-05-14T03:34:39;8.87;;;4.70;;
71490;SDS011;59307;50.060;9.150;2023-05-14T03:37:04;7.43;;;4.87;;
71490;SDS011;59307;50.060;9.150;2023-05-14T03:39:30;7.53;;;4.90;;
71490;SDS011;59307;50.060;9.150;2023-05-14T03:41:55;8.87;;;5.23;;
71490;SDS011;59307;50.060;9.150;2023-05-14T03:44:22;8.32;;;4.90;;
71490;SDS011;59307;50.060;9.150;2023-05-14T03:46:47;10.47;;;4.80;;
71490;SDS011;59307;50.060;9.150;2023-05-14T03:49:13;8.17;;;4.70;;
71490;SDS011;59307;50.060;9.150;2023-05-14T03:51:38;9.70;;;4.70;;
71490;SDS011;59307;50.060;9.150;2023-05-14T03:54:03;7.23;;;4.20;;
71490;SDS011;59307;50.060;9.150;2023-05-14T03:56:28;8.30;;;4.50;;
71490;SDS011;59307;50.060;9.150;2023-05-14T03:58:54;8.23;;;4.90;;
71490;SDS011;59307;50.060;9.150;2023-05-14T04:01:19;8.17;;;5.03;;
71490;SDS011;59307;50.060;9.150;2023-05-14T04:03:44;7.87;;;4.70;;
71490;SDS011;59307;50.060;9.150;2023-05-14T04:06:09;8.03;;;4.80;;
71490;SDS011;59307;50.060;9.150;2023-05-14T04:08:34;8.35;;;4.97;;
71490;SDS011;59307;50.060;9.150;2023-05-14T04:11:00;10.07;;;5.43;;
71490;SDS011;59307;50.060;9.150;2023-05-14T04:13:25;10.27;;;5.43;;
71490;SDS011;59307;50.060;9.150;2023-05-14T04:15:50;8.03;;;5.13;;
71490;SDS011;59307;50.060;9.150;2023-05-14T04:18:15;7.03;;;4.67;;
71490;SDS011;59307;50.060;9.150;2023-05-14T04:20:41;9.73;;;5.13;;
71490;SDS011;59307;50.060;9.150;2023-05-14T04:23:06;10.90;;;5.00;;
71490;SDS011;59307;50.060;9.150;2023-05-14T04:25:31;8.70;;;5.30;;
71490;SDS011;59307;50.060;9.150;2023-05-14T04:27:56;7.80;;;5.23;;
71490;SDS011;59307;50.060;9.150;2023-05-14T04:30:22;8.63;;;5.22;;
71490;SDS011;59307;50.060;9.150;2023-05-14T04:32:47;8.27;;;4.93;;
71490;SDS011;59307;50.060;9.150;2023-05-14T04:35:12;9.00;;;5.17;;
71490;SDS011;59307;50.060;9.150;2023-05-14T04:37:38;9.87;;;5.63;;
71490;SDS011;59307;50.060;9.150;2023-05-14T04:40:04;8.10;;;4.77;;
71490;SDS011;59307;50.060;9.150;2023-05-14T04:42:30;9.17;;;5.60;;
71490;SDS011;59307;50.060;9.150;2023-05-14T04:44:55;7.95;;;5.20;;
71490;SDS011;59307;50.060;9.150;2023-05-14T04:47:21;8.73;;;5.67;;
71490;SDS011;59307;50.060;9.150;2023-05-14T04:49:46;9.47;;;5.10;;
71490;SDS011;59307;50.060;9.150;2023-05-14T04:52:11;9.97;;;5.47;;
71490;SDS011;59307;50.060;9.150;2023-05-14T04:54:37;9.60;;;5.30;;
71490;SDS011;59307;50.060;9.150;2023-05-14T04:57:02;8.93;;;5.40;;
71490;SDS011;59307;50.060;9.150;2023-05-14T04:59:30;8.70;;;5.23;;
71490;SDS011;59307;50.060;9.150;2023-05-14T05:01:55;13.30;;;5.38;;
71490;SDS011;59307;50.060;9.150;2023-05-14T05:04:21;8.27;;;5.13;;
71490;SDS011;59307;50.060;9.150;2023-05-14T05:06:48;12.27;;;5.63;;
71490;SDS011;59307;50.060;9.150;2023-05-14T05:09:13;7.90;;;5.00;;
71490;SDS011;59307;50.060;9.150;2023-05-14T05:11:38;7.77;;;4.97;;
71490;SDS011;59307;50.060;9.150;2023-05-14T05:14:03;7.83;;;5.03;;
71490;SDS011;59307;50.060;9.150;2023-05-14T05:16:28;8.60;;;5.10;;
71490;SDS011;59307;50.060;9.150;2023-05-14T05:18:54;7.63;;;4.97;;
71490;SDS011;59307;50.060;9.150;2023-05-14T05:21:19;10.23;;;5.70;;
71490;SDS011;59307;50.060;9.150;2023-05-14T05:23:44;9.23;;;5.40;;
71490;SDS011;59307;50.060;9.150;2023-05-14T05:26:09;8.17;;;5.40;;
71490;SDS011;59307;50.060;9.150;2023-05-14T05:28:34;9.07;;;5.13;;
71490;SDS011;59307;50.060;9.150;2023-05-14T05:31:00;11.03;;;5.43;;
71490;SDS011;59307;50.060;9.150;2023-05-14T05:33:25;9.20;;;5.10;;
71490;SDS011;59307;50.060;9.150;2023-05-14T05:35:50;8.03;;;5.40;;
71490;SDS011;59307;50.060;9.150;2023-05-14T05:38:16;8.95;;;5.53;;
71490;SDS011;59307;50.060;9.150;2023-05-14T05:40:42;8.18;;;5.20;;
71490;SDS011;59307;50.060;9.150;2023-05-14T05:43:07;9.50;;;5.07;;
71490;SDS011;59307;50.060;9.150;2023-05-14T05:45:32;11.30;;;6.13;;
71490;SDS011;59307;50.060;9.150;2023-05-14T05:47:58;8.77;;;5.30;;
71490;SDS011;59307;50.060;9.150;2023-05-14T05:50:23;9.40;;;5.47;;
71490;SDS011;59307;50.060;9.150;2023-05-14T05:52:48;9.77;;;5.20;;
71490;SDS011;59307;50.060;9.150;2023-05-14T05:55:13;7.70;;;4.87;;
71490;SDS011;59307;50.060;9.150;2023-05-14T05:57:38;7.10;;;4.40;;
71490;SDS011;59307;50.060;9.150;2023-05-14T06:00:04;7.43;;;4.97;;
71490;SDS011;59307;50.060;9.150;2023-05-14T06:02:37;7.05;;;4.50;;
71490;SDS011;59307;50.060;9.150;2023-05-14T06:05:02;6.90;;;4.53;;
71490;SDS011;59307;50.060;9.150;2023-05-14T06:07:27;7.03;;;4.23;;
71490;SDS011;59307;50.060;9.150;2023-05-14T06:09:52;7.17;;;4.00;;
71490;SDS011;59307;50.060;9.150;2023-05-14T06:12:17;5.40;;;3.70;;
71490;SDS011;59307;50.060;9.150;2023-05-14T06:14:43;6.10;;;4.07;;
71490;SDS011;59307;50.060;9.150;2023-05-14T06:17:08;6.30;;;4.20;;
71490;SDS011;59307;50.060;9.150;2023-05-14T06:19:33;7.00;;;4.27;;
71490;SDS011;59307;50.060;9.150;2023-05-14T06:21:58;5.83;;;3.80;;
71490;SDS011;59307;50.060;9.150;2023-05-14T06:24:23;6.83;;;4.33;;
71490;SDS011;59307;50.060;9.150;2023-05-14T06:26:48;5.80;;;3.67;;
71490;SDS011;59307;50.060;9.150;2023-05-14T06:29:14;7.77;;;4.50;;
71490;SDS011;59307;50.060;9.150;2023-05-14T06:31:39;6.13;;;4.10;;
71490;SDS011;59307;50.060;9.150;2023-05-14T06:34:04;8.13;;;4.87;;
71490;SDS011;59307;50.060;9.150;2023-05-14T06:36:29;6.67;;;4.03;;
71490;SDS011;59307;50.060;9.150;2023-05-14T06:38:55;7.00;;;4.57;;
71490;SDS011;59307;50.060;9.150;2023-05-14T06:41:20;7.93;;;4.33;;
71490;SDS011;59307;50.060;9.150;2023-05-14T06:43:45;6.63;;;4.03;;
71490;SDS011;59307;50.060;9.150;2023-05-14T06:46:10;5.80;;;3.70;;
71490;SDS011;59307;50.060;9.150;2023-05-14T06:48:35;6.77;;;3.40;;
71490;SDS011;59307;50.060;9.150;2023-05-14T06:51:01;5.13;;;3.30;;
71490;SDS011;59307;50.060;9.150;2023-05-14T06:53:27;6.22;;;4.00;;
71490;SDS011;59307;50.060;9.150;2023-05-14T06:55:52;5.80;;;3.80;;
71490;SDS011;59307;50.060;9.150;2023-05-14T06:58:17;6.60;;;3.70;;
71490;SDS011;59307;50.060;9.150;2023-05-14T07:00:42;6.33;;;3.63;;
71490;SDS011;59307;50.060;9.150;2023-05-14T07:03:08;6.63;;;3.93;;
71490;SDS011;59307;50.060;9.150;2023-05-14T07:05:33;5.90;;;3.53;;
71490;SDS011;59307;50.060;9.150;2023-05-14T07:07:58;5.83;;;3.30;;
71490;SDS011;59307;50.060;9.150;2023-05-14T07:10:23;5.33;;;3.40;;
71490;SDS011;59307;50.060;9.150;2023-05-14T07:12:49;6.60;;;3.57;;
71490;SDS011;59307;50.060;9.150;2023-05-14T07:15:14;6.20;;;3.60;;
71490;SDS011;59307;50.060;9.150;2023-05-14T07:17:39;4.83;;;3.30;;
71490;SDS011;59307;50.060;9.150;2023-05-14T07:20:05;5.10;;;3.40;;
71490;SDS011;59307;50.060;9.150;2023-05-14T07:22:30;7.20;;;3.60;;
71490;SDS011;59307;50.060;9.150;2023-05-14T07:24:55;5.40;;;3.47;;
71490;SDS011;59307;50.060;9.150;2023-05-14T07:27:21;5.67;;;3.27;;
71490;SDS011;59307;50.060;9.150;2023-05-14T07:29:46;4.57;;;3.07;;
71490;SDS011;59307;50.060;9.150;2023-05-14T07:32:11;5.30;;;3.33;;
71490;SDS011;59307;50.060;9.150;2023-05-14T07:34:36;4.70;;;3.30;;
71490;SDS011;59307;50.060;9.150;2023-05-14T07:37:01;5.47;;;3.10;;
71490;SDS011;59307;50.060;9.150;2023-05-14T07:39:27;5.37;;;3.40;;
71490;SDS011;59307;50.060;9.150;2023-05-14T07:41:52;5.80;;;3.30;;
71490;SDS011;59307;50.060;9.150;2023-05-14T07:44:20;5.10;;;3.30;;
71490;SDS011;59307;50.060;9.150;2023-05-14T07:46:46;5.60;;;3.10;;
71490;SDS011;59307;50.060;9.150;2023-05-14T07:49:11;5.38;;;3.28;;
71490;SDS011;59307;50.060;9.150;2023-05-14T07:51:36;4.57;;;3.03;;
71490;SDS011;59307;50.060;9.150;2023-05-14T07:54:01;5.60;;;3.30;;
71490;SDS011;59307;50.060;9.150;2023-05-14T07:56:27;5.40;;;3.03;;
71490;SDS011;59307;50.060;9.150;2023-05-14T07:58:52;5.33;;;3.07;;
71490;SDS011;59307;50.060;9.150;2023-05-14T08:01:17;5.10;;;3.57;;
71490;SDS011;59307;50.060;9.150;2023-05-14T08:03:42;6.57;;;3.07;;
71490;SDS011;59307;50.060;9.150;2023-05-14T08:06:07;4.53;;;2.83;;
71490;SDS011;59307;50.060;9.150;2023-05-14T08:08:33;5.83;;;3.50;;
71490;SDS011;59307;50.060;9.150;2023-05-14T08:10:58;4.60;;;3.17;;
71490;SDS011;59307;50.060;9.150;2023-05-14T08:13:23;5.40;;;3.40;;
71490;SDS011;59307;50.060;9.150;2023-05-14T08:15:49;4.35;;;2.95;;
71490;SDS011;59307;50.060;9.150;2023-05-14T08:18:14;4.37;;;2.93;;
71490;SDS011;59307;50.060;9.150;2023-05-14T08:20:39;5.10;;;2.83;;
71490;SDS011;59307;50.060;9.150;2023-05-14T08:23:05;5.93;;;3.00;;
71490;SDS011;59307;50.060;9.150;2023-05-14T08:25:31;5.75;;;3.30;;
71490;SDS011;59307;50.060;9.150;2023-05-14T08:27:56;5.13;;;3.10;;
71490;SDS011;59307;50.060;9.150;2023-05-14T08:30:23;4.55;;;2.90;;
71490;SDS011;59307;50.060;9.150;2023-05-14T08:32:48;4.90;;;2.93;;
71490;SDS011;59307;50.060;9.150;2023-05-14T08:35:14;4.27;;;2.77;;
71490;SDS011;59307;50.060;9.150;2023-05-14T08:37:40;5.90;;;3.10;;
71490;SDS011;59307;50.060;9.150;2023-05-14T08:40:05;4.77;;;3.30;;
71490;SDS011;59307;50.060;9.150;2023-05-14T08:42:32;5.18;;;2.83;;
71490;SDS011;59307;50.060;9.150;2023-05-14T08:45:01;5.15;;;2.90;;
71490;SDS011;59307;50.060;9.150;2023-05-14T08:47:27;4.53;;;2.90;;
71490;SDS011;59307;50.060;9.150;2023-05-14T08:49:59;4.67;;;3.27;;
71490;SDS011;59307;50.060;9.150;2023-05-14T08:52:24;6.20;;;3.30;;
71490;SDS011;59307;50.060;9.150;2023-05-14T08:54:50;4.37;;;2.87;;
71490;SDS011;59307;50.060;9.150;2023-05-14T08:57:17;4.95;;;3.30;;
71490;SDS011;59307;50.060;9.150;2023-05-14T08:59:44;5.80;;;3.00;;
71490;SDS011;59307;50.060;9.150;2023-05-14T09:02:09;4.97;;;3.20;;
71490;SDS011;59307;50.060;9.150;2023-05-14T09:04:35;5.50;;;3.38;;
71490;SDS011;59307;50.060;9.150;2023-05-14T09:07:01;5.57;;;2.97;;
71490;SDS011;59307;50.060;9.150;2023-05-14T09:09:26;5.00;;;2.90;;
71490;SDS011;59307;50.060;9.150;2023-05-14T09:11:52;4.90;;;3.00;;
71490;SDS011;59307;50.060;9.150;2023-05-14T09:14:17;4.57;;;3.00;;
71490;SDS011;59307;50.060;9.150;2023-05-14T09:16:47;4.40;;;2.83;;
71490;SDS011;59307;50.060;9.150;2023-05-14T09:19:12;5.40;;;2.90;;
71490;SDS011;59307;50.060;9.150;2023-05-14T09:21:38;5.78;;;3.08;;
71490;SDS011;59307;50.060;9.150;2023-05-14T09:24:04;5.53;;;3.08;;
71490;SDS011;59307;50.060;9.150;2023-05-14T09:26:30;5.93;;;2.97;;
71490;SDS011;59307;50.060;9.150;2023-05-14T09:28:59;6.17;;;3.10;;
71490;SDS011;59307;50.060;9.150;2023-05-14T09:31:26;5.97;;;3.08;;
71490;SDS011;59307;50.060;9.150;2023-05-14T09:33:51;5.55;;;2.90;;
71490;SDS011;59307;50.060;9.150;2023-05-14T09:36:17;5.70;;;3.10;;
71490;SDS011;59307;50.060;9.150;2023-05-14T09:38:42;6.17;;;2.80;;
71490;SDS011;59307;50.060;9.150;2023-05-14T09:41:07;5.87;;;3.77;;
71490;SDS011;59307;50.060;9.150;2023-05-14T09:43:32;5.53;;;3.23;;
71490;SDS011;59307;50.060;9.150;2023-05-14T09:45:58;6.57;;;3.00;;
71490;SDS011;59307;50.060;9.150;2023-05-14T09:48:23;4.93;;;3.17;;
71490;SDS011;59307;50.060;9.150;2023-05-14T09:50:49;5.50;;;3.08;;
71490;SDS011;59307;50.060;9.150;2023-05-14T09:53:15;3.90;;;2.45;;
71490;SDS011;59307;50.060;9.150;2023-05-14T09:55:41;4.18;;;2.70;;
71490;SDS011;59307;50.060;9.150;2023-05-14T09:58:06;5.25;;;2.70;;
71490;SDS011;59307;50.060;9.150;2023-05-14T10:00:32;4.57;;;2.90;;
71490;SDS011;59307;50.060;9.150;2023-05-14T10:02:58;5.30;;;3.23;;
71490;SDS011;59307;50.060;9.150;2023-05-14T10:05:23;5.03;;;3.00;;
71490;SDS011;59307;50.060;9.150;2023-05-14T10:07:49;5.10;;;3.10;;
71490;SDS011;59307;50.060;9.150;2023-05-14T10:10:17;5.32;;;3.13;;
71490;SDS011;59307;50.060;9.150;2023-05-14T10:12:43;4.78;;;3.17;;
71490;SDS011;59307;50.060;9.150;2023-05-14T10:15:17;4.60;;;2.90;;
71490;SDS011;59307;50.060;9.150;2023-05-14T10:17:46;4.47;;;3.10;;
71490;SDS011;59307;50.060;9.150;2023-05-14T10:20:13;4.25;;;2.83;;
71490;SDS011;59307;50.060;9.150;2023-05-14T10:22:38;5.45;;;3.20;;
71490;SDS011;59307;50.060;9.150;2023-05-14T10:25:04;4.50;;;3.00;;
71490;SDS011;59307;50.060;9.150;2023-05-14T10:27:29;5.17;;;3.10;;
71490;SDS011;59307;50.060;9.150;2023-05-14T10:29:55;4.70;;;3.03;;
71490;SDS011;59307;50.060;9.150;2023-05-14T10:32:21;5.63;;;2.70;;
71490;SDS011;59307;50.060;9.150;2023-05-14T10:34:47;4.18;;;3.08;;
71490;SDS011;59307;50.060;9.150;2023-05-14T10:37:14;5.63;;;3.23;;
71490;SDS011;59307;50.060;9.150;2023-05-14T10:39:43;4.85;;;3.10;;
71490;SDS011;59307;50.060;9.150;2023-05-14T10:42:12;4.40;;;2.70;;
71490;SDS011;59307;50.060;9.150;2023-05-14T10:44:40;5.20;;;2.93;;
71490;SDS011;59307;50.060;9.150;2023-05-14T10:47:06;5.32;;;3.20;;
71490;SDS011;59307;50.060;9.150;2023-05-14T10:49:32;5.10;;;2.90;;
71490;SDS011;59307;50.060;9.150;2023-05-14T10:51:57;4.53;;;3.10;;
71490;SDS011;59307;50.060;9.150;2023-05-14T10:54:23;4.67;;;2.90;;
71490;SDS011;59307;50.060;9.150;2023-05-14T10:56:48;5.67;;;2.93;;
71490;SDS011;59307;50.060;9.150;2023-05-14T10:59:15;5.33;;;2.83;;
71490;SDS011;59307;50.060;9.150;2023-05-14T11:01:41;5.20;;;3.00;;
71490;SDS011;59307;50.060;9.150;2023-05-14T11:04:06;5.13;;;2.83;;
71490;SDS011;59307;50.060;9.150;2023-05-14T11:06:33;5.43;;;3.50;;
71490;SDS011;59307;50.060;9.150;2023-05-14T11:08:58;5.23;;;3.33;;
71490;SDS011;59307;50.060;9.150;2023-05-14T11:11:25;4.90;;;3.10;;
71490;SDS011;59307;50.060;9.150;2023-05-14T11:13:51;6.53;;;3.33;;
71490;SDS011;59307;50.060;9.150;2023-05-14T11:16:17;5.05;;;2.83;;
71490;SDS011;59307;50.060;9.150;2023-05-14T11:18:43;4.93;;;3.00;;
71490;SDS011;59307;50.060;9.150;2023-05-14T11:21:09;5.60;;;3.17;;
71490;SDS011;59307;50.060;9.150;2023-05-14T11:23:34;4.67;;;2.90;;
71490;SDS011;59307;50.060;9.150;2023-05-14T11:25:59;6.27;;;3.20;;
71490;SDS011;59307;50.060;9.150;2023-05-14T11:28:25;5.27;;;3.37;;
71490;SDS011;59307;50.060;9.150;2023-05-14T11:30:51;6.83;;;3.17;;
71490;SDS011;59307;50.060;9.150;2023-05-14T11:33:16;5.47;;;2.83;;
71490;SDS011;59307;50.060;9.150;2023-05-14T11:35:42;6.03;;;3.00;;
71490;SDS011;59307;50.060;9.150;2023-05-14T11:38:19;4.72;;;2.95;;
71490;SDS011;59307;50.060;9.150;2023-05-14T11:40:51;5.45;;;3.13;;
71490;SDS011;59307;50.060;9.150;2023-05-14T11:43:17;4.40;;;2.80;;
71490;SDS011;59307;50.060;9.150;2023-05-14T11:45:42;4.47;;;3.10;;
71490;SDS011;59307;50.060;9.150;2023-05-14T11:48:13;5.68;;;2.83;;
71490;SDS011;59307;50.060;9.150;2023-05-14T11:50:51;4.50;;;3.05;;
71490;SDS011;59307;50.060;9.150;2023-05-14T11:53:29;4.07;;;2.90;;
71490;SDS011;59307;50.060;9.150;2023-05-14T11:55:54;6.18;;;2.70;;
71490;SDS011;59307;50.060;9.150;2023-05-14T11:58:21;4.40;;;2.70;;
71490;SDS011;59307;50.060;9.150;2023-05-14T12:00:50;6.97;;;3.27;;
71490;SDS011;59307;50.060;9.150;2023-05-14T12:03:15;4.30;;;3.00;;
71490;SDS011;59307;50.060;9.150;2023-05-14T12:05:53;5.93;;;3.30;;
71490;SDS011;59307;50.060;9.150;2023-05-14T12:08:21;4.15;;;2.90;;
71490;SDS011;59307;50.060;9.150;2023-05-14T12:10:47;7.22;;;3.10;;
71490;SDS011;59307;50.060;9.150;2023-05-14T12:13:15;5.03;;;3.10;;
71490;SDS011;59307;50.060;9.150;2023-05-14T12:15:45;5.57;;;3.55;;
71490;SDS011;59307;50.060;9.150;2023-05-14T12:18:11;3.67;;;2.75;;
71490;SDS011;59307;50.060;9.150;2023-05-14T12:20:36;3.73;;;2.73;;
71490;SDS011;59307;50.060;9.150;2023-05-14T12:23:01;5.27;;;2.80;;
71490;SDS011;59307;50.060;9.150;2023-05-14T12:25:27;4.30;;;2.90;;
71490;SDS011;59307;50.060;9.150;2023-05-14T12:27:53;4.07;;;2.60;;
71490;SDS011;59307;50.060;9.150;2023-05-14T12:30:18;4.47;;;3.40;;
71490;SDS011;59307;50.060;9.150;2023-05-14T12:32:44;4.70;;;2.70;;
71490;SDS011;59307;50.060;9.150;2023-05-14T12:35:09;3.97;;;2.80;;
71490;SDS011;59307;50.060;9.150;2023-05-14T12:37:35;4.40;;;2.87;;
71490;SDS011;59307;50.060;9.150;2023-05-14T12:40:02;4.47;;;2.70;;
71490;SDS011;59307;50.060;9.150;2023-05-14T12:42:27;7.72;;;2.83;;
71490;SDS011;59307;50.060;9.150;2023-05-14T12:44:52;3.60;;;2.60;;
71490;SDS011;59307;50.060;9.150;2023-05-14T12:47:18;4.50;;;2.70;;
71490;SDS011;59307;50.060;9.150;2023-05-14T12:49:43;3.90;;;3.00;;
71490;SDS011;59307;50.060;9.150;2023-05-14T12:52:08;4.17;;;2.90;;
71490;SDS011;59307;50.060;9.150;2023-05-14T12:54:33;5.80;;;2.97;;
71490;SDS011;59307;50.060;9.150;2023-05-14T12:56:58;3.27;;;2.70;;
71490;SDS011;59307;50.060;9.150;2023-05-14T12:59:24;4.30;;;3.00;;
71490;SDS011;59307;50.060;9.150;2023-05-14T13:01:49;3.37;;;2.53;;
71490;SDS011;59307;50.060;9.150;2023-05-14T13:04:14;6.00;;;2.97;;
71490;SDS011;59307;50.060;9.150;2023-05-14T13:06:39;4.53;;;2.70;;
71490;SDS011;59307;50.060;9.150;2023-05-14T13:09:05;3.27;;;2.63;;
71490;SDS011;59307;50.060;9.150;2023-05-14T13:11:30;5.13;;;3.17;;
71490;SDS011;59307;50.060;9.150;2023-05-14T13:13:59;4.47;;;2.77;;
71490;SDS011;59307;50.060;9.150;2023-05-14T13:16:25;5.13;;;2.60;;
71490;SDS011;59307;50.060;9.150;2023-05-14T13:18:50;4.18;;;3.10;;
71490;SDS011;59307;50.060;9.150;2023-05-14T13:21:16;4.93;;;3.10;;
71490;SDS011;59307;50.060;9.150;2023-05-14T13:23:41;4.03;;;2.83;;
71490;SDS011;59307;50.060;9.150;2023-05-14T13:26:06;2.93;;;2.50;;
71490;SDS011;59307;50.060;9.150;2023-05-14T13:28:31;4.27;;;3.00;;
71490;SDS011;59307;50.060;9.150;2023-05-14T13:31:04;3.10;;;2.53;;
71490;SDS011;59307;50.060;9.150;2023-05-14T13:33:29;4.07;;;2.55;;
71490;SDS011;59307;50.060;9.150;2023-05-14T13:35:54;3.67;;;2.83;;
71490;SDS011;59307;50.060;9.150;2023-05-14T13:38:20;3.07;;;2.47;;
71490;SDS011;59307;50.060;9.150;2023-05-14T13:40:45;4.80;;;3.00;;
71490;SDS011;59307;50.060;9.150;2023-05-14T13:43:10;3.33;;;2.40;;
71490;SDS011;59307;50.060;9.150;2023-05-14T13:45:35;4.73;;;2.50;;
71490;SDS011;59307;50.060;9.150;2023-05-14T13:48:00;3.37;;;2.60;;
71490;SDS011;59307;50.060;9.150;2023-05-14T13:50:25;3.80;;;2.60;;
71490;SDS011;59307;50.060;9.150;2023-05-14T13:52:51;2.77;;;2.43;;
71490;SDS011;59307;50.060;9.150;2023-05-14T13:55:16;3.17;;;2.07;;
71490;SDS011;59307;50.060;9.150;2023-05-14T13:57:41;3.63;;;2.70;;
71490;SDS011;59307;50.060;9.150;2023-05-14T14:00:07;3.70;;;2.50;;
71490;SDS011;59307;50.060;9.150;2023-05-14T14:02:32;2.92;;;2.30;;
71490;SDS011;59307;50.060;9.150;2023-05-14T14:04:58;2.90;;;2.10;;
71490;SDS011;59307;50.060;9.150;2023-05-14T14:07:23;3.37;;;2.43;;
71490;SDS011;59307;50.060;9.150;2023-05-14T14:09:48;2.57;;;2.20;;
71490;SDS011;59307;50.060;9.150;2023-05-14T14:12:13;3.23;;;2.47;;
71490;SDS011;59307;50.060;9.150;2023-05-14T14:14:38;2.73;;;2.00;;
71490;SDS011;59307;50.060;9.150;2023-05-14T14:17:04;2.87;;;2.13;;
71490;SDS011;59307;50.060;9.150;2023-05-14T14:19:29;3.20;;;2.50;;
71490;SDS011;59307;50.060;9.150;2023-05-14T14:21:54;3.33;;;2.57;;
71490;SDS011;59307;50.060;9.150;2023-05-14T14:24:19;4.43;;;2.17;;
71490;SDS011;59307;50.060;9.150;2023-05-14T14:26:44;3.10;;;2.10;;
71490;SDS011;59307;50.060;9.150;2023-05-14T14:29:10;2.57;;;2.00;;
71490;SDS011;59307;50.060;9.150;2023-05-14T14:31:35;2.80;;;2.00;;
71490;SDS011;59307;50.060;9.150;2023-05-14T14:34:00;2.70;;;1.93;;
71490;SDS011;59307;50.060;9.150;2023-05-14T14:36:25;3.13;;;2.50;;
71490;SDS011;59307;50.060;9.150;2023-05-14T14:38:50;3.97;;;2.30;;
71490;SDS011;59307;50.060;9.150;2023-05-14T14:41:16;4.07;;;2.50;;
71490;SDS011;59307;50.060;9.150;2023-05-14T14:43:41;4.07;;;2.80;;
71490;SDS011;59307;50.060;9.150;2023-05-14T14:46:07;2.92;;;2.15;;